Time;durP1;ratioP1;P1;durP2;ratioP2;P2;SDS_P1;SDS_P2;PMS_P1;PMS_P2;Temp;Humidity;BMP_temperature;BMP_pressure;BME280_temperature;BME280_humidity;BME280_pressure;Samples;Min_cycle;Max_cycle;Signal;HPM_P1;HPM_P2
2021/05/22 10:10:25;;;;;;;4.50;1.22;;;;;;;21.09;39.71;99509.69;1807607;77;27824;-77
2021/05/22 10:12:53;;;;;;;1.87;1.07;;;;;;;21.03;40.78;99512.67;1808770;78;20928;-78
2021/05/22 10:15:19;;;;;;;4.97;1.22;;;;;;;21.10;39.71;99509.10;1809022;78;21071;-75
2021/05/22 10:17:46;;;;;;;3.47;0.90;;;;;;;21.00;39.38;99499.45;1778762;78;20973;-75
2021/05/22 10:20:13;;;;;;;8.23;1.30;;;;;;;20.87;39.59;99496.95;1777722;78;20926;-80
2021/05/22 10:22:44;;;;;;;5.05;1.22;;;;;;;20.88;39.53;99500.56;1812564;78;21015;-77
2021/05/22 10:25:12;;;;;;;3.52;1.10;;;;;;;20.95;40.17;99493.61;1807086;78;21009;-77
2021/05/22 10:27:38;;;;;;;3.40;0.88;;;;;;;21.07;41.02;99487.48;1808900;78;21615;-74
2021/05/22 10:30:08;;;;;;;2.47;1.10;;;;;;;21.25;41.00;99486.16;1808770;78;20946;-73
2021/05/22 10:32:38;;;;;;;0.75;0.75;;;;;;;21.41;40.39;99482.98;1807275;78;20970;-76
2021/05/22 10:35:20;;;;;;;4.05;0.90;;;;;;;21.49;37.82;99485.23;1808917;78;21034;-79
2021/05/22 10:37:50;;;;;;;1.82;0.90;;;;;;;21.43;38.02;99474.21;1811888;78;21527;-76
2021/05/22 10:40:19;;;;;;;8.65;1.22;;;;;;;21.38;39.56;99467.78;1808593;78;21068;-75
2021/05/22 10:42:55;;;;;;;1.12;0.95;;;;;;;21.49;40.23;99474.02;1788009;78;21039;-79
2021/05/22 10:45:40;;;;;;;5.08;1.00;;;;;;;21.62;40.57;99452.83;1808838;78;20986;-78
2021/05/22 10:48:21;;;;;;;3.95;1.10;;;;;;;21.75;38.61;99463.05;1808175;78;21042;-75
2021/05/22 10:50:49;;;;;;;3.62;2.20;;;;;;;21.82;37.97;99460.10;1807934;78;20956;-74
2021/05/22 10:53:29;;;;;;;1.80;1.02;;;;;;;21.92;37.80;99456.48;1811257;78;21188;-78
2021/05/22 10:56:17;;;;;;;8.50;1.37;;;;;;;22.04;38.74;99449.67;1811980;78;20975;-74
2021/05/22 10:59:06;;;;;;;2.15;1.30;;;;;;;22.15;37.59;99453.08;1811175;78;21073;-78
2021/05/22 11:01:40;;;;;;;5.55;1.17;;;;;;;22.20;37.36;99447.88;1755417;80;21055;-75
2021/05/22 11:04:24;;;;;;;4.83;1.10;;;;;;;22.25;37.64;99435.44;1743896;81;21058;-76
2021/05/22 11:06:56;;;;;;;4.30;1.30;;;;;;;22.30;38.54;99440.64;1718602;83;21121;-74
2021/05/22 11:09:35;;;;;;;5.43;1.60;;;;;;;22.38;37.01;99435.84;1711893;83;21082;-73
2021/05/22 11:12:15;;;;;;;4.55;1.20;;;;;;;22.38;36.20;99435.84;1770030;80;21099;-77
2021/05/22 11:14:48;;;;;;;6.28;1.27;;;;;;;22.33;35.96;99424.40;1766034;80;21137;-74
2021/05/22 11:17:29;;;;;;;4.58;0.80;;;;;;;22.29;35.24;99427.83;1768312;80;21091;-77
2021/05/22 11:20:07;;;;;;;4.92;1.00;;;;;;;22.22;35.38;99420.22;1767180;80;21589;-74
2021/05/22 11:22:54;;;;;;;3.58;1.00;;;;;;;22.23;35.38;99423.81;1763845;80;21098;-76
2021/05/22 11:25:18;;;;;;;2.53;1.40;;;;;;;22.24;34.17;99415.61;1770763;80;20952;-75
2021/05/22 11:27:56;;;;;;;5.12;0.93;;;;;;;22.30;35.81;99413.17;1767017;80;21002;-75
2021/05/22 11:30:36;;;;;;;1.80;0.90;;;;;;;22.37;35.86;99420.19;1768276;80;21569;-76
2021/05/22 11:33:27;;;;;;;4.30;1.10;;;;;;;22.44;35.00;99417.97;1765386;80;21027;-75
2021/05/22 11:35:57;;;;;;;5.08;1.20;;;;;;;22.49;35.71;99417.55;1765994;80;21079;-75
2021/05/22 11:38:29;;;;;;;2.37;1.45;;;;;;;22.58;35.44;99414.33;1770561;80;21093;-76
2021/05/22 11:43:33;;;;;;;7.00;1.02;;;;;;;22.50;35.27;99420.58;1741215;80;21104;-76
2021/05/22 11:46:06;;;;;;;2.87;0.98;;;;;;;22.34;35.60;99430.23;1703571;83;21449;-72
2021/05/22 11:48:47;;;;;;;4.35;0.95;;;;;;;22.33;36.82;99426.42;1768426;80;23695;-74
2021/05/22 11:51:19;;;;;;;2.95;0.90;;;;;;;22.37;36.23;99433.62;1765433;80;21003;-75
2021/05/22 11:54:00;;;;;;;2.17;0.80;;;;;;;22.38;35.68;99416.98;1770800;80;20995;-75
2021/05/22 11:56:30;;;;;;;4.42;1.05;;;;;;;22.47;35.97;99419.95;1767285;80;21074;-79
2021/05/22 11:58:58;;;;;;;3.98;1.17;;;;;;;22.61;35.50;99419.97;1767583;80;22512;-77
2021/05/22 12:01:35;;;;;;;9.23;1.50;;;;;;;22.60;34.70;99416.91;1703077;83;21063;-75
2021/05/22 12:04:07;;;;;;;3.02;0.90;;;;;;;22.54;35.22;99407.91;1703365;83;20975;-78
2021/05/22 12:06:41;;;;;;;5.45;1.40;;;;;;;22.49;35.97;99407.73;1763472;80;20955;-75
2021/05/22 12:09:19;;;;;;;4.60;1.32;;;;;;;22.37;34.96;99401.35;1765542;80;20967;-76
2021/05/22 12:12:01;;;;;;;1.02;0.90;;;;;;;22.17;34.58;99404.39;1776554;80;21658;-78
2021/05/22 12:14:44;;;;;;;3.73;1.00;;;;;;;21.97;35.57;99396.41;1772131;80;21661;-77
2021/05/22 12:17:14;;;;;;;5.05;1.45;;;;;;;21.82;36.00;99390.79;1775619;80;20999;-76
2021/05/22 12:19:49;;;;;;;16.17;2.58;;;;;;;21.77;36.24;99387.77;1775175;80;21074;-76
2021/05/22 12:22:28;;;;;;;4.55;1.35;;;;;;;21.84;36.99;99386.98;1771626;80;21026;-75
2021/05/22 12:24:55;;;;;;;3.85;1.72;;;;;;;21.96;36.59;99384.97;1768575;80;21091;-78
2021/05/22 12:27:21;;;;;;;1.98;1.25;;;;;;;22.00;35.36;99375.97;1772003;80;21089;-79
2021/05/22 12:29:50;;;;;;;12.03;1.45;;;;;;;22.03;35.96;99370.14;1768874;80;21018;-75
2021/05/22 12:32:17;;;;;;;4.53;1.17;;;;;;;22.08;35.70;99371.95;1776110;80;20969;-75
2021/05/22 12:34:44;;;;;;;3.60;1.05;;;;;;;22.20;35.78;99379.73;1707451;83;21071;-76
2021/05/22 12:37:21;;;;;;;1.42;0.93;;;;;;;22.29;35.30;99375.92;1709440;83;21106;-77
2021/05/22 12:39:52;;;;;;;1.85;1.00;;;;;;;22.37;34.77;99369.67;1714984;82;21090;-75
2021/05/22 12:42:27;;;;;;;5.12;1.25;;;;;;;22.41;34.67;99372.48;1679023;83;21086;-78
2021/05/22 12:45:16;;;;;;;1.57;0.90;;;;;;;22.46;34.80;99363.64;1705885;83;21047;-78
2021/05/22 12:47:47;;;;;;;4.28;0.78;;;;;;;22.54;34.25;99352.59;1721600;82;21037;-76
2021/05/22 12:50:27;;;;;;;2.27;1.03;;;;;;;22.59;34.36;99356.38;1711211;83;21040;-74
2021/05/22 12:53:00;;;;;;;6.20;1.10;;;;;;;22.70;34.61;99355.56;1718400;82;21289;-78
2021/05/22 12:55:31;;;;;;;5.83;1.10;;;;;;;22.88;35.25;99351.89;1717275;82;20966;-76
2021/05/22 12:58:02;;;;;;;2.42;1.22;;;;;;;23.02;35.17;99349.58;1707811;83;21078;-79
2021/05/22 13:00:30;;;;;;;2.77;1.17;;;;;;;23.16;35.38;99345.30;1708613;83;21046;-77
2021/05/22 13:03:01;;;;;;;4.40;1.45;;;;;;;23.30;34.55;99334.55;1716010;82;21065;-75
2021/05/22 13:05:32;;;;;;;3.10;1.20;;;;;;;23.34;34.31;99329.71;1709716;83;21042;-74
2021/05/22 13:08:08;;;;;;;1.00;0.80;;;;;;;23.36;34.28;99333.52;1718880;82;21565;-75
2021/05/22 13:10:40;;;;;;;5.58;1.10;;;;;;;23.29;34.74;99337.17;1703059;83;21034;-74
2021/05/22 13:13:15;;;;;;;7.35;1.00;;;;;;;23.25;33.47;99331.39;1767889;80;21007;-74
2021/05/22 13:15:47;;;;;;;3.12;0.88;;;;;;;23.20;33.94;99325.61;1738329;80;21601;-75
2021/05/22 13:18:27;;;;;;;1.32;0.75;;;;;;;23.16;34.14;99322.02;1767538;80;20923;-74
2021/05/22 13:21:12;;;;;;;3.37;0.98;;;;;;;23.12;32.76;99327.66;1763740;80;20986;-78
2021/05/22 13:23:44;;;;;;;1.70;1.10;;;;;;;23.02;33.51;99315.28;1703566;83;21090;-79
2021/05/22 13:26:25;;;;;;;4.55;1.12;;;;;;;23.01;33.82;99316.50;1762243;80;21054;-78
2021/05/22 13:28:58;;;;;;;1.32;0.93;;;;;;;23.11;33.02;99314.83;1769966;80;21102;-74
2021/05/22 13:31:29;;;;;;;;;;;;;;;23.19;32.68;99316.38;1768654;80;20999;-75
2021/05/22 13:34:05;;;;;;;5.62;1.10;;;;;;;23.20;32.43;99314.37;1767015;80;20155;-79
2021/05/22 13:36:32;;;;;;;3.00;1.05;;;;;;;23.15;32.61;99312.78;1766235;80;21169;-77
2021/05/22 13:39:00;;;;;;;2.90;0.93;;;;;;;23.04;32.19;99308.66;1765062;80;21030;-77
2021/05/22 13:41:34;;;;;;;5.50;1.20;;;;;;;22.89;32.77;99313.56;1705805;83;21087;-77
2021/05/22 13:44:06;;;;;;;6.15;1.00;;;;;;;22.77;33.18;99303.60;1761856;80;21053;-75
2021/05/22 13:46:33;;;;;;;1.47;1.00;;;;;;;22.76;34.11;99311.03;1764522;80;21601;-79
2021/05/22 13:49:01;;;;;;;6.60;1.40;;;;;;;22.76;33.23;99299.17;1767386;80;21090;-77
2021/05/22 13:51:32;;;;;;;8.08;0.90;;;;;;;22.75;33.05;99291.97;1771771;80;21555;-75
2021/05/22 13:53:59;;;;;;;1.00;0.70;;;;;;;22.76;34.09;99285.14;1766050;80;21117;-77
2021/05/22 13:56:25;;;;;;;1.57;0.90;;;;;;;22.83;34.30;99290.72;1770436;80;21012;-78
2021/05/22 13:58:52;;;;;;;4.22;1.27;;;;;;;22.93;34.71;99291.05;1765978;80;21066;-78
2021/05/22 14:01:19;;;;;;;1.75;0.90;;;;;;;23.02;34.27;99291.41;1766240;80;21006;-77
2021/05/22 14:03:56;;;;;;;3.00;0.75;;;;;;;23.08;33.84;99286.94;1766830;80;21068;-76
2021/05/22 14:06:26;;;;;;;2.55;1.27;;;;;;;23.10;33.30;99279.50;1741528;80;21074;-76
2021/05/22 14:08:54;;;;;;;4.37;0.88;;;;;;;23.09;32.94;99285.75;1767408;80;21074;-77
2021/05/22 14:11:20;;;;;;;2.10;1.17;;;;;;;23.09;33.84;99280.73;1773184;80;21050;-76
2021/05/22 14:13:46;;;;;;;5.60;1.20;;;;;;;23.04;33.21;99290.99;1779015;80;21567;-78
2021/05/22 14:16:13;;;;;;;0.88;0.80;;;;;;;22.91;33.46;99285.07;1779015;80;21043;-76
2021/05/22 14:18:41;;;;;;;1.22;0.70;;;;;;;22.73;33.43;99285.96;1770590;80;21083;-79
2021/05/22 14:21:07;;;;;;;3.10;1.55;;;;;;;22.62;33.67;99294.45;1771969;80;21081;-74
2021/05/22 14:23:34;;;;;;;4.58;1.12;;;;;;;22.55;33.31;99289.65;1772995;80;21038;-77
2021/05/22 14:26:00;;;;;;;7.78;1.00;;;;;;;22.41;33.49;99289.70;1774823;80;21090;-77
2021/05/22 14:28:27;;;;;;;2.98;0.90;;;;;;;22.32;33.93;99292.93;1774606;80;21010;-77
2021/05/22 14:30:53;;;;;;;1.20;0.90;;;;;;;22.28;34.38;99285.92;1775212;80;21091;-76
2021/05/22 14:33:20;;;;;;;5.28;0.90;;;;;;;22.29;34.49;99281.12;1773767;80;21013;-78
2021/05/22 14:35:46;;;;;;;2.80;0.90;;;;;;;22.29;34.34;99284.73;1774936;80;21586;-76
2021/05/22 14:38:12;;;;;;;6.10;1.45;;;;;;;22.27;34.85;99281.53;1775330;80;21006;-79
2021/05/22 14:40:39;;;;;;;1.62;0.93;;;;;;;22.21;35.58;99283.17;1773529;80;21037;-74
2021/05/22 14:43:07;;;;;;;6.12;1.17;;;;;;;22.14;36.74;99279.78;1772286;80;21113;-75
2021/05/22 14:45:37;;;;;;;2.40;1.20;;;;;;;22.11;35.46;99282.78;1776896;80;21106;-78
2021/05/22 14:48:06;;;;;;;1.98;1.10;;;;;;;22.12;35.46;99288.61;1710580;83;21026;-75
2021/05/22 14:50:33;;;;;;;1.27;0.90;;;;;;;22.16;35.28;99278.75;1715115;82;21101;-76
2021/05/22 14:53:00;;;;;;;2.25;0.93;;;;;;;22.23;35.07;99276.52;1718812;82;21074;-76
2021/05/22 14:55:27;;;;;;;2.65;1.72;;;;;;;22.23;34.46;99268.91;1719147;82;21215;-80
2021/05/22 14:57:58;;;;;;;3.85;1.10;;;;;;;22.23;34.88;99276.52;1720397;82;21588;-76
2021/05/22 15:00:25;;;;;;;1.80;1.10;;;;;;;22.18;35.10;99278.38;1720524;82;21055;-75
2021/05/22 15:02:54;;;;;;;3.80;1.40;;;;;;;22.15;35.18;99282.77;1716904;82;21053;-78
2021/05/22 15:05:23;;;;;;;1.62;1.00;;;;;;;22.11;35.47;99289.80;1718473;82;21168;-75
2021/05/22 15:07:51;;;;;;;3.17;1.15;;;;;;;22.09;35.48;99283.00;1717114;82;21243;-77
2021/05/22 15:10:17;;;;;;;2.25;1.25;;;;;;;22.10;34.60;99281.79;1712505;82;21591;-75
2021/05/22 15:12:43;;;;;;;7.10;1.07;;;;;;;22.11;34.62;99277.17;1704612;83;21031;-74
2021/05/22 15:15:10;;;;;;;1.70;0.78;;;;;;;22.11;35.38;99277.17;1767147;80;21550;-73
2021/05/22 15:17:37;;;;;;;2.02;1.00;;;;;;;22.09;35.52;99279.58;1766666;80;20943;-78
2021/05/22 15:20:06;;;;;;;3.60;1.95;;;;;;;21.99;35.14;99284.64;1766583;80;21050;-78
2021/05/22 15:22:32;;;;;;;3.90;1.00;;;;;;;21.91;34.67;99284.43;1768692;80;20931;-79
2021/05/22 15:24:59;;;;;;;4.72;1.50;;;;;;;21.86;34.75;99284.25;1767422;80;21045;-77
2021/05/22 15:27:25;;;;;;;4.62;1.35;;;;;;;21.81;34.81;99282.66;1698116;83;21630;-74
2021/05/22 15:29:52;;;;;;;3.47;1.50;;;;;;;21.75;34.68;99282.85;1769186;80;21014;-73
2021/05/22 15:32:18;;;;;;;1.92;1.20;;;;;;;21.61;34.63;99285.88;1766878;80;21550;-73
2021/05/22 15:34:44;;;;;;;1.55;1.00;;;;;;;21.47;35.18;99288.08;1768206;80;21094;-78
2021/05/22 15:37:11;;;;;;;4.45;1.67;;;;;;;21.34;35.37;99284.85;1766632;80;21035;-77
2021/05/22 15:39:43;;;;;;;2.45;1.30;;;;;;;21.23;35.54;99286.27;1766832;80;21544;-75
2021/05/22 15:42:05;;;;;;;2.83;1.70;;;;;;;21.13;35.29;99280.05;1766481;80;21093;-81
2021/05/22 15:44:33;;;;;;;2.60;1.37;;;;;;;21.06;35.64;99281.44;1766486;80;21074;-76
2021/05/22 15:47:00;;;;;;;1.72;1.02;;;;;;;21.00;35.97;99274.83;1766821;80;21145;-80
2021/05/22 15:57:59;;;;;;;4.08;1.00;;;;;;;21.34;35.22;99249.83;1770188;80;21095;-75
2021/05/22 16:00:18;;;;;;;1.75;1.17;;;;;;;21.42;35.17;99245.05;1768545;80;21074;-73
2021/05/22 16:07:59;;;;;;;3.08;2.27;;;;;;;21.32;35.30;99232.65;1766662;80;21030;-77
2021/05/22 16:10:27;;;;;;;3.33;1.27;;;;;;;21.23;35.04;99228.84;1771296;80;21682;-74
2021/05/22 16:12:54;;;;;;;1.82;1.02;;;;;;;21.13;34.75;99231.85;1774800;80;20967;-74
2021/05/22 16:15:21;;;;;;;3.70;2.02;;;;;;;21.03;35.08;99229.22;1776122;80;21030;-76
2021/05/22 16:17:50;;;;;;;3.85;1.52;;;;;;;20.96;35.31;99227.03;1774072;80;21038;-74
2021/05/22 16:20:18;;;;;;;3.83;1.62;;;;;;;20.85;35.45;99233.39;1775323;80;20983;-77
2021/05/22 16:22:45;;;;;;;3.95;2.95;;;;;;;20.78;35.77;99238.37;1772840;80;21679;-74
2021/05/22 16:25:11;;;;;;;8.98;1.75;;;;;;;20.74;36.05;99239.57;1778451;80;21042;-75
2021/05/22 16:27:38;;;;;;;3.77;1.27;;;;;;;20.70;36.23;99242.95;1773753;80;21058;-76
2021/05/22 16:30:06;;;;;;;4.97;1.50;;;;;;;20.65;36.19;99239.95;1777343;80;21090;-78
2021/05/22 16:32:36;;;;;;;2.95;1.12;;;;;;;20.62;36.48;99235.95;1775289;80;21046;-74
2021/05/22 16:35:12;;;;;;;6.35;2.08;;;;;;;20.61;36.68;99236.36;1776780;80;21155;-76
2021/05/22 16:37:42;;;;;;;2.02;1.40;;;;;;;20.59;36.65;99242.32;1703320;84;21534;-73
2021/05/22 16:40:13;;;;;;;6.30;4.00;;;;;;;20.57;36.80;99232.14;1730924;82;21086;-76
2021/05/22 16:42:38;;;;;;;2.40;1.70;;;;;;;20.56;36.83;99230.52;1705521;83;21061;-77
2021/05/22 16:45:06;;;;;;;3.80;1.35;;;;;;;20.57;36.93;99236.34;1725847;82;21051;-75
2021/05/22 16:47:33;;;;;;;3.47;1.65;;;;;;;20.58;36.59;99232.33;1701773;84;21104;-78
2021/05/22 16:49:59;;;;;;;4.62;1.90;;;;;;;20.58;37.16;99234.33;1728912;82;21069;-77
2021/05/22 16:52:27;;;;;;;7.03;2.40;;;;;;;20.53;36.97;99239.72;1705678;84;21057;-76
2021/05/22 16:54:53;;;;;;;5.70;1.50;;;;;;;20.49;36.97;99238.92;1719448;82;21042;-77
2021/05/22 16:57:19;;;;;;;2.52;1.50;;;;;;;20.42;36.87;99234.88;1705990;84;21684;-75
2021/05/22 16:59:46;;;;;;;2.47;1.27;;;;;;;20.38;36.87;99232.69;1725244;82;21682;-77
2021/05/22 17:02:13;;;;;;;7.20;1.80;;;;;;;20.31;36.71;99225.66;1728693;82;21102;-76
2021/05/22 17:04:39;;;;;;;4.53;1.37;;;;;;;20.28;36.92;99231.43;1705724;83;21812;-74
2021/05/22 17:07:06;;;;;;;4.28;1.57;;;;;;;20.25;36.97;99229.42;1731170;82;21081;-74
2021/05/22 17:09:32;;;;;;;5.70;1.52;;;;;;;20.21;36.99;99240.41;1731528;82;21087;-76
2021/05/22 17:12:04;;;;;;;1.98;1.20;;;;;;;20.13;36.80;99233.98;1722026;82;21613;-75
2021/05/22 17:14:30;;;;;;;3.67;1.42;;;;;;;20.04;36.91;99230.15;1726945;83;21070;-75
2021/05/22 17:16:57;;;;;;;2.62;1.60;;;;;;;19.97;36.97;99235.08;1723505;83;21597;-76
2021/05/22 17:19:24;;;;;;;17.37;2.08;;;;;;;19.91;37.04;99231.84;1727656;83;21093;-75
2021/05/22 17:21:51;;;;;;;7.85;1.77;;;;;;;19.83;37.53;99231.60;1723709;83;21062;-75
2021/05/22 17:24:18;;;;;;;4.83;2.08;;;;;;;19.73;37.44;99230.36;1719672;83;21113;-78
2021/05/22 17:26:48;;;;;;;3.62;1.80;;;;;;;19.67;37.67;99228.52;1727682;83;21042;-81
2021/05/22 17:32:47;;;;;;;;;;;;;;;19.53;38.25;99228.44;1601754;87;21040;-78
2021/05/22 17:35:14;;;;;;;4.33;1.70;;;;;;;19.38;38.38;99227.53;1615832;88;20215;-77
2021/05/22 17:37:41;;;;;;;8.58;1.57;;;;;;;19.31;38.62;99229.68;1657632;84;21056;-75
2021/05/22 17:40:15;;;;;;;4.53;1.70;;;;;;;19.28;39.02;99226.23;1702186;83;21007;-79
2021/05/22 17:42:46;;;;;;;4.80;1.52;;;;;;;19.22;38.73;99221.63;1695748;84;21133;-75
2021/05/22 17:45:25;;;;;;;3.35;1.90;;;;;;;19.17;39.16;99224.19;1701926;83;21075;-79
2021/05/22 17:47:51;;;;;;;5.03;1.90;;;;;;;19.12;39.28;99221.75;1704169;83;21154;-77
2021/05/22 17:50:18;;;;;;;4.97;2.30;;;;;;;19.08;39.35;99222.27;1727602;83;21085;-76
2021/05/22 17:52:47;;;;;;;5.92;2.90;;;;;;;19.02;39.55;99219.02;1702814;84;21715;-78
2021/05/22 17:55:14;;;;;;;7.62;1.90;;;;;;;18.97;39.94;99218.79;1699780;83;21050;-78
2021/05/22 17:57:40;;;;;;;2.80;2.02;;;;;;;18.92;39.96;99218.36;1698434;84;21569;-77
2021/05/22 18:00:09;;;;;;;3.22;1.72;;;;;;;18.87;40.12;99213.91;1698794;83;21110;-74
2021/05/22 18:02:36;;;;;;;7.70;1.62;;;;;;;18.80;40.20;99211.85;1703850;83;21124;-77
2021/05/22 18:05:03;;;;;;;3.58;1.82;;;;;;;18.76;40.26;99215.22;1703124;83;21591;-78
2021/05/22 18:07:30;;;;;;;3.90;2.00;;;;;;;18.71;40.67;99219.13;1698245;84;21101;-78
2021/05/22 18:09:57;;;;;;;4.97;2.10;;;;;;;18.67;40.56;99216.11;1702208;83;21058;-79
2021/05/22 18:12:27;;;;;;;5.72;1.82;;;;;;;18.63;40.96;99211.09;1707885;83;21613;-77
2021/05/22 18:14:54;;;;;;;6.20;1.77;;;;;;;18.55;41.39;99206.83;1719851;82;21122;-78
2021/05/22 18:17:21;;;;;;;6.37;2.30;;;;;;;18.47;41.54;99203.77;1723584;82;21054;-80
2021/05/22 18:19:48;;;;;;;7.62;2.02;;;;;;;18.42;41.66;99208.28;1724664;82;21557;-81
2021/05/22 18:22:16;;;;;;;4.78;1.80;;;;;;;18.37;41.83;99203.86;1721522;82;21127;-77
2021/05/22 18:24:42;;;;;;;5.92;1.65;;;;;;;18.31;42.29;99208.16;1720778;82;21296;-76
2021/05/22 18:27:09;;;;;;;5.53;2.02;;;;;;;18.23;42.25;99213.66;1724419;82;21605;-76
2021/05/22 18:29:35;;;;;;;10.55;2.52;;;;;;;18.18;42.30;99218.77;1709699;83;21121;-79
2021/05/22 18:32:03;;;;;;;4.62;2.50;;;;;;;18.13;42.34;99217.91;1725801;82;21023;-78
2021/05/22 18:34:30;;;;;;;4.53;2.40;;;;;;;18.09;42.45;99215.65;1714108;83;21113;-77
2021/05/22 18:36:58;;;;;;;5.83;2.12;;;;;;;18.07;42.52;99228.34;1722042;82;20922;-79
2021/05/22 18:39:25;;;;;;;4.42;2.87;;;;;;;18.03;42.47;99230.30;1691396;83;21245;-78
2021/05/22 18:41:51;;;;;;;11.68;4.05;;;;;;;17.99;42.67;99225.48;1719762;82;21061;-80
2021/05/22 18:44:17;;;;;;;6.70;3.80;;;;;;;17.96;42.96;99229.00;1720549;83;21066;-76
2021/05/22 18:46:45;;;;;;;6.47;3.17;;;;;;;17.92;42.98;99225.96;1720929;83;21017;-76
2021/05/22 18:49:12;;;;;;;6.75;2.37;;;;;;;17.88;43.13;99228.70;1723190;82;21045;-78
2021/05/22 18:51:39;;;;;;;6.40;2.60;;;;;;;17.82;43.31;99225.45;1711357;83;21424;-74
2021/05/22 18:54:09;;;;;;;5.33;2.33;;;;;;;17.80;43.47;99224.21;1727229;82;21066;-77
2021/05/22 18:56:36;;;;;;;4.80;2.60;;;;;;;17.75;43.60;99222.56;1710201;83;21046;-78
2021/05/22 18:59:04;;;;;;;6.37;2.80;;;;;;;17.71;43.89;99220.30;1691382;82;21032;-77
2021/05/22 19:01:32;;;;;;;11.75;2.70;;;;;;;17.66;44.03;99221.44;1695446;82;21425;-77
2021/05/22 19:03:59;;;;;;;6.33;2.85;;;;;;;17.61;44.15;99223.15;1725693;82;21735;-73
2021/05/22 19:06:25;;;;;;;5.75;2.55;;;;;;;17.56;44.06;99225.67;1728243;82;21061;-76
2021/05/22 19:08:52;;;;;;;4.55;2.50;;;;;;;17.52;44.08;99220.62;1727268;82;21625;-77
2021/05/22 19:11:18;;;;;;;13.15;2.67;;;;;;;17.48;44.09;99228.14;1701414;83;21078;-73
2021/05/22 19:13:47;;;;;;;7.75;2.70;;;;;;;17.45;44.42;99228.89;1722644;82;21622;-79
2021/05/22 19:16:14;;;;;;;8.40;2.12;;;;;;;17.39;44.63;99219.47;1706613;83;21790;-75
2021/05/22 19:18:40;;;;;;;6.47;2.65;;;;;;;17.34;44.99;99219.78;1718942;82;21030;-74
2021/05/22 19:21:07;;;;;;;4.42;2.20;;;;;;;17.27;45.47;99227.44;1705916;83;21559;-76
2021/05/22 19:23:33;;;;;;;8.03;2.05;;;;;;;17.23;45.77;99228.56;1716949;83;21086;-76
2021/05/22 19:26:00;;;;;;;4.22;2.55;;;;;;;17.19;45.75;99222.93;1716978;83;21090;-78
2021/05/22 19:28:26;;;;;;;8.98;2.37;;;;;;;17.14;45.84;99221.85;1727529;82;21070;-75
2021/05/22 19:30:55;;;;;;;6.20;2.25;;;;;;;17.10;45.97;99225.15;1713846;83;21054;-76
2021/05/22 19:33:21;;;;;;;19.00;3.40;;;;;;;17.07;45.82;99223.09;1740282;82;21003;-81
2021/05/22 19:35:49;;;;;;;7.95;3.02;;;;;;;17.06;45.94;99221.48;1698993;83;20990;-77
2021/05/22 19:38:16;;;;;;;6.55;2.35;;;;;;;17.04;46.09;99220.47;1715695;83;21086;-75
2021/05/22 19:40:42;;;;;;;4.85;2.70;;;;;;;17.03;46.15;99225.80;1709960;83;21073;-76
2021/05/22 19:43:08;;;;;;;8.58;2.75;;;;;;;17.02;46.24;99221.42;1707265;83;20977;-76
2021/05/22 19:45:35;;;;;;;8.63;2.60;;;;;;;16.99;46.53;99220.17;1712532;82;21029;-80
2021/05/22 19:48:02;;;;;;;12.28;3.00;;;;;;;16.97;46.63;99222.55;1710007;83;21585;-76
2021/05/22 19:50:28;;;;;;;5.45;2.75;;;;;;;16.94;46.74;99219.09;1720377;81;21568;-77
2021/05/22 19:52:55;;;;;;;3.37;2.08;;;;;;;16.93;46.79;99215.29;1710176;83;21064;-79
2021/05/22 19:55:21;;;;;;;5.08;1.82;;;;;;;16.89;47.13;99214.64;1716365;83;22243;-77
2021/05/22 19:57:49;;;;;;;7.67;2.50;;;;;;;16.85;47.12;99211.01;1703126;83;21074;-78
2021/05/22 20:00:18;;;;;;;7.53;2.00;;;;;;;16.82;47.02;99211.73;1711420;83;21066;-76
2021/05/22 20:02:45;;;;;;;4.60;2.33;;;;;;;16.76;47.35;99205.69;1738817;80;21050;-79
2021/05/22 20:05:12;;;;;;;7.37;2.30;;;;;;;16.73;47.16;99205.62;1710932;83;21126;-76
2021/05/22 20:07:41;;;;;;;3.25;2.00;;;;;;;16.72;47.05;99208.19;1706445;83;21094;-75
2021/05/22 20:10:08;;;;;;;4.83;2.02;;;;;;;16.71;47.10;99203.20;1719841;81;21042;-79
2021/05/22 20:12:35;;;;;;;5.37;1.92;;;;;;;16.70;47.27;99199.41;1700732;83;21070;-75
2021/05/22 20:15:04;;;;;;;5.65;1.95;;;;;;;16.68;47.16;99194.22;1711495;82;21077;-80
2021/05/22 20:17:31;;;;;;;4.65;1.90;;;;;;;16.70;46.89;99187.67;1743179;81;21173;-77
2021/05/22 20:19:57;;;;;;;5.08;1.65;;;;;;;16.73;47.01;99191.13;1709216;83;21058;-77
2021/05/22 20:22:23;;;;;;;4.92;1.92;;;;;;;16.71;46.82;99186.52;1721714;81;21574;-79
2021/05/22 20:24:50;;;;;;;4.00;1.45;;;;;;;16.72;46.76;99190.89;1712668;82;21094;-77
2021/05/22 20:27:16;;;;;;;4.08;1.60;;;;;;;16.73;46.87;99195.88;1720744;82;21065;-77
2021/05/22 20:29:42;;;;;;;2.30;1.52;;;;;;;16.70;46.82;99193.84;1719823;82;21582;-75
2021/05/22 20:32:10;;;;;;;5.08;1.52;;;;;;;16.72;46.83;99196.46;1720856;81;21082;-77
2021/05/22 20:34:36;;;;;;;6.67;1.70;;;;;;;16.72;47.08;99197.06;1725577;81;21065;-77
2021/05/22 20:37:04;;;;;;;6.35;1.65;;;;;;;16.70;47.28;99191.84;1710661;82;21684;-77
2021/05/22 20:39:32;;;;;;;4.37;1.90;;;;;;;16.69;47.32;99199.98;1728318;82;21167;-78
2021/05/22 20:42:00;;;;;;;5.75;2.00;;;;;;;16.67;47.50;99189.81;1688559;82;21122;-79
2021/05/22 20:44:27;;;;;;;6.28;1.90;;;;;;;16.66;47.56;99182.66;1711244;82;21086;-79
2021/05/22 20:46:55;;;;;;;3.33;1.45;;;;;;;16.63;47.74;99178.62;1718320;81;21049;-76
2021/05/22 20:49:21;;;;;;;3.98;1.87;;;;;;;16.60;47.86;99177.19;1722563;82;21059;-76
2021/05/22 20:51:50;;;;;;;2.85;1.82;;;;;;;16.56;47.90;99179.90;1719427;81;21562;-77
2021/05/22 20:54:18;;;;;;;3.00;1.60;;;;;;;16.55;47.95;99177.70;1720348;82;21031;-77
2021/05/22 20:56:46;;;;;;;2.70;1.72;;;;;;;16.54;48.15;99183.05;1718825;81;21093;-77
2021/05/22 20:59:14;;;;;;;7.12;1.65;;;;;;;16.51;48.27;99174.03;1709946;81;21070;-79
2021/05/22 21:01:44;;;;;;;6.03;3.22;;;;;;;16.51;48.38;99176.03;1722734;82;21069;-78
2021/05/22 21:04:11;;;;;;;6.30;2.33;;;;;;;16.48;48.43;99162.27;1718914;81;21093;-77
2021/05/22 21:06:38;;;;;;;6.97;1.80;;;;;;;16.46;48.62;99156.88;1716418;82;21065;-77
2021/05/22 21:09:06;;;;;;;7.55;1.87;;;;;;;16.42;48.87;99155.41;1716827;81;21125;-78
2021/05/22 21:11:33;;;;;;;5.40;2.17;;;;;;;16.37;48.73;99154.32;1724618;81;21546;-76
2021/05/22 21:14:00;;;;;;;6.53;1.70;;;;;;;16.35;48.80;99155.27;1732262;81;21081;-75
2021/05/22 21:16:28;;;;;;;1.95;1.40;;;;;;;16.33;48.76;99151.47;1723575;83;21085;-78
2021/05/22 21:18:55;;;;;;;4.78;1.65;;;;;;;16.32;48.88;99150.45;1730596;81;21593;-76
2021/05/22 21:21:22;;;;;;;1.57;1.32;;;;;;;16.29;49.00;99149.23;1723383;81;21097;-79
2021/05/22 21:23:51;;;;;;;4.95;1.87;;;;;;;16.28;49.02;99149.80;1728134;81;21131;-74
2021/05/22 21:26:17;;;;;;;2.77;1.57;;;;;;;16.28;49.09;99151.77;1727567;83;21070;-77
2021/05/22 21:28:44;;;;;;;4.78;2.00;;;;;;;16.25;49.21;99153.32;1717200;81;21065;-75
2021/05/22 21:31:10;;;;;;;4.22;1.52;;;;;;;16.23;49.31;99156.23;1728183;81;21137;-78
2021/05/22 21:33:36;;;;;;;2.85;1.52;;;;;;;16.21;49.62;99157.18;1692183;83;21077;-77
2021/05/22 21:36:04;;;;;;;5.05;1.50;;;;;;;16.16;49.67;99152.16;1728103;81;21078;-76
2021/05/22 21:38:31;;;;;;;8.40;2.17;;;;;;;16.14;49.81;99154.49;1720287;83;21129;-76
2021/05/22 21:40:57;;;;;;;2.70;1.62;;;;;;;16.13;49.97;99157.06;1719779;83;21094;-80
2021/05/22 21:43:26;;;;;;;4.00;1.37;;;;;;;16.12;50.08;99160.99;1720094;83;21502;-78
2021/05/22 21:45:52;;;;;;;6.05;1.85;;;;;;;16.09;50.15;99156.78;1724492;81;21569;-74
2021/05/22 21:48:18;;;;;;;5.03;1.50;;;;;;;16.11;50.36;99159.97;1727382;83;21081;-76
2021/05/22 21:50:45;;;;;;;4.85;1.60;;;;;;;16.10;50.47;99156.98;1728149;81;21601;-78
2021/05/22 21:53:11;;;;;;;2.75;1.80;;;;;;;16.09;50.65;99156.17;1727290;83;21045;-78
2021/05/22 21:55:39;;;;;;;2.85;1.62;;;;;;;16.09;50.74;99156.78;1717185;81;21104;-77
2021/05/22 21:58:09;;;;;;;5.40;1.52;;;;;;;16.06;50.78;99157.73;1719690;81;21637;-76
2021/05/22 22:00:47;;;;;;;2.47;1.52;;;;;;;16.06;51.06;99159.11;1729132;81;21539;-78
2021/05/22 22:03:27;;;;;;;4.17;1.92;;;;;;;16.06;51.13;99156.91;1723710;83;21093;-77
2021/05/22 22:05:56;;;;;;;4.92;1.70;;;;;;;16.04;51.27;99149.52;1691249;81;21030;-78
2021/05/22 22:08:23;;;;;;;2.37;1.37;;;;;;;16.02;51.53;99149.89;1724413;83;21089;-76
2021/05/22 22:10:52;;;;;;;3.37;1.57;;;;;;;15.96;51.76;99151.34;1692501;83;21645;-79
2021/05/22 22:13:20;;;;;;;3.08;1.52;;;;;;;15.96;52.01;99154.69;1727256;83;21086;-78